sensor_id;sensor_type;location;lat;lon;timestamp;pressure;altitude;pressure_sealevel;temperature;humidity
64521;BME280;50896;46.714;17.322;2023-05-19T00:02:07;101111.06;;;10.94;100.00
64521;BME280;50896;46.714;17.322;2023-05-19T00:04:35;101101.25;;;10.95;100.00
64521;BME280;50896;46.714;17.322;2023-05-19T00:07:03;101099.44;;;10.96;100.00
64521;BME280;50896;46.714;17.322;2023-05-19T00:09:31;101104.75;;;10.96;100.00
64521;BME280;50896;46.714;17.322;2023-05-19T00:11:58;101107.41;;;10.96;100.00
64521;BME280;50896;46.714;17.322;2023-05-19T00:14:25;101093.25;;;10.95;100.00
64521;BME280;50896;46.714;17.322;2023-05-19T00:16:52;101090.31;;;10.98;100.00
64521;BME280;50896;46.714;17.322;2023-05-19T00:19:21;101077.59;;;10.92;100.00
64521;BME280;50896;46.714;17.322;2023-05-19T00:21:52;101089.47;;;10.98;100.00
64521;BME280;50896;46.714;17.322;2023-05-19T00:24:18;101082.63;;;10.95;100.00
64521;BME280;50896;46.714;17.322;2023-05-19T00:26:45;101084.31;;;10.96;100.00
64521;BME280;50896;46.714;17.322;2023-05-19T00:29:12;101076.16;;;10.98;100.00
64521;BME280;50896;46.714;17.322;2023-05-19T00:31:44;101086.28;;;10.94;100.00
64521;BME280;50896;46.714;17.322;2023-05-19T00:34:12;101083.47;;;10.96;100.00
64521;BME280;50896;46.714;17.322;2023-05-19T00:36:39;101080.66;;;10.97;100.00
64521;BME280;50896;46.714;17.322;2023-05-19T00:39:05;101084.31;;;10.96;100.00
64521;BME280;50896;46.714;17.322;2023-05-19T00:41:32;101065.81;;;10.94;100.00
64521;BME280;50896;46.714;17.322;2023-05-19T00:43:59;101066.50;;;10.97;100.00
64521;BME280;50896;46.714;17.322;2023-05-19T00:46:26;101066.66;;;10.95;100.00
64521;BME280;50896;46.714;17.322;2023-05-19T00:48:53;101062.88;;;10.98;100.00
64521;BME280;50896;46.714;17.322;2023-05-19T00:51:21;101057.69;;;10.96;100.00
64521;BME280;50896;46.714;17.322;2023-05-19T00:53:49;101057.84;;;10.94;100.00
64521;BME280;50896;46.714;17.322;2023-05-19T00:56:17;101054.22;;;10.96;100.00
64521;BME280;50896;46.714;17.322;2023-05-19T00:58:45;101061.19;;;10.97;100.00
64521;BME280;50896;46.714;17.322;2023-05-19T01:01:12;101059.13;;;10.90;100.00
64521;BME280;50896;46.714;17.322;2023-05-19T01:03:43;101052.28;;;10.88;100.00
64521;BME280;50896;46.714;17.322;2023-05-19T01:06:10;101059.22;;;10.99;100.00
64521;BME280;50896;46.714;17.322;2023-05-19T01:08:38;101055.59;;;11.00;100.00
64521;BME280;50896;46.714;17.322;2023-05-19T01:11:06;101059.63;;;11.04;100.00
64521;BME280;50896;46.714;17.322;2023-05-19T01:13:34;101052.94;;;11.00;100.00
64521;BME280;50896;46.714;17.322;2023-05-19T01:16:25;101062.41;;;11.02;100.00
64521;BME280;50896;46.714;17.322;2023-05-19T01:28:09;101069.19;;;11.15;100.00
64521;BME280;50896;46.714;17.322;2023-05-19T01:30:43;101072.00;;;11.13;100.00
64521;BME280;50896;46.714;17.322;2023-05-19T01:33:12;101072.88;;;11.14;100.00
64521;BME280;50896;46.714;17.322;2023-05-19T01:35:41;101061.97;;;11.07;100.00
64521;BME280;50896;46.714;17.322;2023-05-19T01:38:10;101069.50;;;11.11;100.00
64521;BME280;50896;46.714;17.322;2023-05-19T01:40:39;101073.69;;;11.14;100.00
64521;BME280;50896;46.714;17.322;2023-05-19T01:43:11;101065.63;;;11.06;100.00
64521;BME280;50896;46.714;17.322;2023-05-19T01:45:39;101067.81;;;11.10;100.00
64521;BME280;50896;46.714;17.322;2023-05-19T01:48:07;101061.13;;;11.06;100.00
64521;BME280;50896;46.714;17.322;2023-05-19T01:50:38;101067.81;;;11.10;100.00
64521;BME280;50896;46.714;17.322;2023-05-19T01:53:05;101061.44;;;11.03;100.00
64521;BME280;50896;46.714;17.322;2023-05-19T01:55:35;101068.28;;;11.06;100.00
64521;BME280;50896;46.714;17.322;2023-05-19T02:01:07;101068.44;;;11.04;100.00
64521;BME280;50896;46.714;17.322;2023-05-19T02:06:35;101079.75;;;11.06;100.00
64521;BME280;50896;46.714;17.322;2023-05-19T02:09:10;101079.75;;;11.06;100.00
64521;BME280;50896;46.714;17.322;2023-05-19T02:11:46;101075.59;;;11.04;100.00
64521;BME280;50896;46.714;17.322;2023-05-19T02:14:38;101087.06;;;11.04;100.00
64521;BME280;50896;46.714;17.322;2023-05-19T02:17:05;101072.53;;;10.99;100.00
64521;BME280;50896;46.714;17.322;2023-05-19T02:19:37;101087.22;;;11.03;100.00
64521;BME280;50896;46.714;17.322;2023-05-19T02:22:05;101089.16;;;11.01;100.00
64521;BME280;50896;46.714;17.322;2023-05-19T02:24:32;101083.16;;;10.99;100.00
64521;BME280;50896;46.714;17.322;2023-05-19T02:26:59;101087.78;;;10.97;100.00
64521;BME280;50896;46.714;17.322;2023-05-19T02:29:26;101086.41;;;10.92;100.00
64521;BME280;50896;46.714;17.322;2023-05-19T02:31:53;101081.09;;;10.92;100.00
64521;BME280;50896;46.714;17.322;2023-05-19T02:34:20;101083.63;;;10.94;100.00
64521;BME280;50896;46.714;17.322;2023-05-19T02:36:47;101081.78;;;10.94;100.00
64521;BME280;50896;46.714;17.322;2023-05-19T02:39:17;101082.78;;;10.93;100.00
64521;BME280;50896;46.714;17.322;2023-05-19T02:41:44;101078.31;;;10.94;100.00
64521;BME280;50896;46.714;17.322;2023-05-19T02:44:10;101076.78;;;10.91;100.00
64521;BME280;50896;46.714;17.322;2023-05-19T02:46:37;101079.72;;;10.88;100.00
64521;BME280;50896;46.714;17.322;2023-05-19T02:49:04;101074.69;;;10.85;100.00
64521;BME280;50896;46.714;17.322;2023-05-19T02:51:31;101079.03;;;10.86;100.00
64521;BME280;50896;46.714;17.322;2023-05-19T02:53:58;101078.06;;;10.87;100.00
64521;BME280;50896;46.714;17.322;2023-05-19T02:56:25;101080.00;;;10.85;100.00
64521;BME280;50896;46.714;17.322;2023-05-19T02:58:53;101081.00;;;10.84;100.00
64521;BME280;50896;46.714;17.322;2023-05-19T03:01:20;101070.81;;;10.80;100.00
64521;BME280;50896;46.714;17.322;2023-05-19T03:03:48;101065.47;;;10.80;100.00
64521;BME280;50896;46.714;17.322;2023-05-19T03:06:15;101078.78;;;10.80;100.00
64521;BME280;50896;46.714;17.322;2023-05-19T03:08:43;101074.06;;;10.73;100.00
64521;BME280;50896;46.714;17.322;2023-05-19T03:11:10;101090.53;;;10.77;100.00
64521;BME280;50896;46.714;17.322;2023-05-19T03:13:37;101085.22;;;10.77;100.00
64521;BME280;50896;46.714;17.322;2023-05-19T03:16:04;101090.53;;;10.77;100.00
64521;BME280;50896;46.714;17.322;2023-05-19T03:18:34;101082.72;;;10.75;100.00
64521;BME280;50896;46.714;17.322;2023-05-19T03:21:00;101086.22;;;10.76;100.00
64521;BME280;50896;46.714;17.322;2023-05-19T03:23:27;101074.88;;;10.74;100.00
64521;BME280;50896;46.714;17.322;2023-05-19T03:25:54;101081.19;;;10.73;100.00
64521;BME280;50896;46.714;17.322;2023-05-19T03:28:21;101075.34;;;10.69;100.00
64521;BME280;50896;46.714;17.322;2023-05-19T03:30:48;101083.16;;;10.71;100.00
64521;BME280;50896;46.714;17.322;2023-05-19T03:33:19;101084.84;;;10.72;100.00
64521;BME280;50896;46.714;17.322;2023-05-19T03:35:46;101080.50;;;10.71;100.00
64521;BME280;50896;46.714;17.322;2023-05-19T03:38:14;101089.16;;;10.73;100.00
64521;BME280;50896;46.714;17.322;2023-05-19T03:40:48;101094.34;;;10.74;100.00
64521;BME280;50896;46.714;17.322;2023-05-19T03:43:15;101099.69;;;10.74;100.00
64521;BME280;50896;46.714;17.322;2023-05-19T03:45:47;101091.69;;;10.74;100.00
64521;BME280;50896;46.714;17.322;2023-05-19T03:48:33;101090.03;;;10.73;100.00
64521;BME280;50896;46.714;17.322;2023-05-19T03:51:26;101090.03;;;10.73;100.00
64521;BME280;50896;46.714;17.322;2023-05-19T03:53:59;101086.81;;;10.70;100.00
64521;BME280;50896;46.714;17.322;2023-05-19T03:56:26;101095.19;;;10.75;100.00
64521;BME280;50896;46.714;17.322;2023-05-19T03:58:53;101091.41;;;10.77;100.00
64521;BME280;50896;46.714;17.322;2023-05-19T04:01:20;101101.88;;;10.79;100.00
64521;BME280;50896;46.714;17.322;2023-05-19T04:03:47;101100.22;;;10.78;100.00
64521;BME280;50896;46.714;17.322;2023-05-19T04:06:14;101096.16;;;10.74;100.00
64521;BME280;50896;46.714;17.322;2023-05-19T04:08:41;101107.22;;;10.79;100.00
64521;BME280;50896;46.714;17.322;2023-05-19T04:11:11;101112.69;;;10.77;100.00
64521;BME280;50896;46.714;17.322;2023-05-19T04:13:38;101112.53;;;10.79;100.00
64521;BME280;50896;46.714;17.322;2023-05-19T04:16:05;101110.69;;;10.80;100.00
64521;BME280;50896;46.714;17.322;2023-05-19T04:18:32;101104.41;;;10.81;100.00
64521;BME280;50896;46.714;17.322;2023-05-19T04:20:59;101123.16;;;10.79;100.00
64521;BME280;50896;46.714;17.322;2023-05-19T04:23:27;101119.22;;;10.83;100.00
64521;BME280;50896;46.714;17.322;2023-05-19T04:25:54;101122.56;;;10.85;100.00
64521;BME280;50896;46.714;17.322;2023-05-19T04:28:22;101110.53;;;10.81;100.00
64521;BME280;50896;46.714;17.322;2023-05-19T04:30:49;101119.09;;;10.85;100.00
64521;BME280;50896;46.714;17.322;2023-05-19T04:33:17;101118.63;;;10.89;100.00
64521;BME280;50896;46.714;17.322;2023-05-19T04:35:45;101132.63;;;10.91;100.00
64521;BME280;50896;46.714;17.322;2023-05-19T04:38:13;101135.31;;;10.91;100.00
64521;BME280;50896;46.714;17.322;2023-05-19T04:40:46;101137.09;;;10.91;100.00
64521;BME280;50896;46.714;17.322;2023-05-19T04:43:16;101138.78;;;10.92;100.00
64521;BME280;50896;46.714;17.322;2023-05-19T04:45:44;101136.94;;;10.92;100.00
64521;BME280;50896;46.714;17.322;2023-05-19T04:48:13;101137.09;;;10.91;100.00
64521;BME280;50896;46.714;17.322;2023-05-19T04:50:40;101145.09;;;10.91;100.00
64521;BME280;50896;46.714;17.322;2023-05-19T04:53:08;101140.63;;;10.91;100.00
64521;BME280;50896;46.714;17.322;2023-05-19T04:55:35;101139.63;;;10.92;100.00
64521;BME280;50896;46.714;17.322;2023-05-19T04:58:04;101148.16;;;10.96;100.00
64521;BME280;50896;46.714;17.322;2023-05-19T05:00:32;101141.00;;;10.97;100.00
64521;BME280;50896;46.714;17.322;2023-05-19T05:03:04;101142.69;;;10.98;100.00
64521;BME280;50896;46.714;17.322;2023-05-19T05:05:33;101145.19;;;10.99;100.00
64521;BME280;50896;46.714;17.322;2023-05-19T05:08:00;101140.72;;;11.00;100.00
64521;BME280;50896;46.714;17.322;2023-05-19T05:10:31;101140.44;;;11.03;100.00
64521;BME280;50896;46.714;17.322;2023-05-19T05:13:00;101134.41;;;11.01;100.00
64521;BME280;50896;46.714;17.322;2023-05-19T05:15:28;101146.28;;;11.06;100.00
64521;BME280;50896;46.714;17.322;2023-05-19T05:17:57;101141.09;;;11.05;100.00
64521;BME280;50896;46.714;17.322;2023-05-19T05:20:25;101140.53;;;11.11;100.00
64521;BME280;50896;46.714;17.322;2023-05-19T05:22:52;101147.50;;;11.12;100.00
64521;BME280;50896;46.714;17.322;2023-05-19T05:25:20;101151.44;;;11.18;100.00
64521;BME280;50896;46.714;17.322;2023-05-19T05:27:48;101148.47;;;11.21;100.00
64521;BME280;50896;46.714;17.322;2023-05-19T05:30:15;101150.81;;;11.24;100.00
64521;BME280;50896;46.714;17.322;2023-05-19T05:32:42;101139.91;;;11.17;100.00
64521;BME280;50896;46.714;17.322;2023-05-19T05:35:23;101149.59;;;11.18;100.00
64521;BME280;50896;46.714;17.322;2023-05-19T05:37:50;101142.97;;;11.22;100.00
64521;BME280;50896;46.714;17.322;2023-05-19T05:40:17;101150.22;;;11.30;100.00
64521;BME280;50896;46.714;17.322;2023-05-19T05:42:44;101153.44;;;11.34;100.00
64521;BME280;50896;46.714;17.322;2023-05-19T05:45:12;101156.75;;;11.36;100.00
64521;BME280;50896;46.714;17.322;2023-05-19T05:47:39;101154.97;;;11.36;100.00
64521;BME280;50896;46.714;17.322;2023-05-19T05:50:08;101154.25;;;11.34;100.00
64521;BME280;50896;46.714;17.322;2023-05-19T05:52:36;101161.66;;;11.40;100.00
64521;BME280;50896;46.714;17.322;2023-05-19T05:55:04;101160.69;;;11.41;100.00
64521;BME280;50896;46.714;17.322;2023-05-19T05:57:32;101167.34;;;11.45;100.00
64521;BME280;50896;46.714;17.322;2023-05-19T06:00:03;101175.06;;;11.49;100.00
64521;BME280;50896;46.714;17.322;2023-05-19T06:02:45;101169.03;;;11.46;100.00
64521;BME280;50896;46.714;17.322;2023-05-19T06:05:14;101167.91;;;11.49;100.00
64521;BME280;50896;46.714;17.322;2023-05-19T06:07:42;101179.09;;;11.53;100.00
64521;BME280;50896;46.714;17.322;2023-05-19T06:10:11;101169.28;;;11.53;100.00
64521;BME280;50896;46.714;17.322;2023-05-19T06:12:38;101183.25;;;11.55;100.00
64521;BME280;50896;46.714;17.322;2023-05-19T06:15:07;101179.47;;;11.58;100.00
64521;BME280;50896;46.714;17.322;2023-05-19T06:17:55;101180.31;;;11.58;100.00
64521;BME280;50896;46.714;17.322;2023-05-19T06:20:22;101188.00;;;11.61;100.00
64521;BME280;50896;46.714;17.322;2023-05-19T06:22:49;101186.31;;;11.60;100.00
64521;BME280;50896;46.714;17.322;2023-05-19T06:25:19;101192.34;;;11.62;100.00
64521;BME280;50896;46.714;17.322;2023-05-19T06:27:46;101198.34;;;11.65;100.00
64521;BME280;50896;46.714;17.322;2023-05-19T06:30:14;101191.34;;;11.63;100.00
64521;BME280;50896;46.714;17.322;2023-05-19T06:32:59;101196.69;;;11.63;100.00
64521;BME280;50896;46.714;17.322;2023-05-19T06:35:29;101195.53;;;11.66;100.00
64521;BME280;50896;46.714;17.322;2023-05-19T06:37:56;101189.53;;;11.64;100.00
64521;BME280;50896;46.714;17.322;2023-05-19T06:40:22;101189.78;;;11.71;100.00
64521;BME280;50896;46.714;17.322;2023-05-19T06:42:49;101190.84;;;11.78;100.00
64521;BME280;50896;46.714;17.322;2023-05-19T06:45:35;101189.25;;;11.85;100.00
64521;BME280;50896;46.714;17.322;2023-05-19T06:48:03;101185.81;;;11.93;100.00
64521;BME280;50896;46.714;17.322;2023-05-19T06:50:30;101193.09;;;12.01;100.00
64521;BME280;50896;46.714;17.322;2023-05-19T06:52:58;101188.00;;;12.07;100.00
64521;BME280;50896;46.714;17.322;2023-05-19T06:55:24;101186.69;;;12.11;100.00
64521;BME280;50896;46.714;17.322;2023-05-19T06:57:51;101188.06;;;12.16;100.00
64521;BME280;50896;46.714;17.322;2023-05-19T07:00:18;101182.41;;;12.19;100.00
64521;BME280;50896;46.714;17.322;2023-05-19T07:02:56;101180.25;;;12.22;100.00
64521;BME280;50896;46.714;17.322;2023-05-19T07:05:23;101175.38;;;12.36;100.00
64521;BME280;50896;46.714;17.322;2023-05-19T07:07:54;101169.78;;;12.47;100.00
64521;BME280;50896;46.714;17.322;2023-05-19T07:10:24;101176.81;;;12.48;100.00
64521;BME280;50896;46.714;17.322;2023-05-19T07:12:53;101179.09;;;12.43;100.00
64521;BME280;50896;46.714;17.322;2023-05-19T07:15:22;101174.75;;;12.42;100.00
64521;BME280;50896;46.714;17.322;2023-05-19T07:17:49;101171.09;;;12.43;100.00
64521;BME280;50896;46.714;17.322;2023-05-19T07:20:16;101169.84;;;12.55;100.00
64521;BME280;50896;46.714;17.322;2023-05-19T07:22:43;101172.03;;;12.60;100.00
64521;BME280;50896;46.714;17.322;2023-05-19T07:25:09;101171.44;;;12.66;100.00
64521;BME280;50896;46.714;17.322;2023-05-19T07:27:38;101171.53;;;12.56;100.00
64521;BME280;50896;46.714;17.322;2023-05-19T07:30:09;101173.72;;;12.61;100.00
64521;BME280;50896;46.714;17.322;2023-05-19T07:32:36;101176.44;;;12.69;100.00
64521;BME280;50896;46.714;17.322;2023-05-19T07:35:04;101170.94;;;12.71;100.00
64521;BME280;50896;46.714;17.322;2023-05-19T07:37:31;101172.13;;;12.76;100.00
64521;BME280;50896;46.714;17.322;2023-05-19T07:39:58;101175.03;;;12.83;100.00
64521;BME280;50896;46.714;17.322;2023-05-19T07:42:25;101176.69;;;12.84;100.00
64521;BME280;50896;46.714;17.322;2023-05-19T07:44:52;101168.53;;;12.86;100.00
64521;BME280;50896;46.714;17.322;2023-05-19T07:47:19;101161.34;;;12.86;100.00
64521;BME280;50896;46.714;17.322;2023-05-19T07:49:45;101167.66;;;12.77;100.00
64521;BME280;50896;46.714;17.322;2023-05-19T07:52:15;101167.84;;;12.83;100.00
64521;BME280;50896;46.714;17.322;2023-05-19T07:54:44;101173.38;;;12.90;100.00
64521;BME280;50896;46.714;17.322;2023-05-19T07:57:11;101175.84;;;12.83;100.00
64521;BME280;50896;46.714;17.322;2023-05-19T07:59:38;101160.19;;;12.89;100.00
64521;BME280;50896;46.714;17.322;2023-05-19T08:02:04;101166.59;;;13.04;100.00
64521;BME280;50896;46.714;17.322;2023-05-19T08:04:32;101177.84;;;13.16;100.00
64521;BME280;50896;46.714;17.322;2023-05-19T08:06:58;101162.50;;;13.18;100.00
64521;BME280;50896;46.714;17.322;2023-05-19T08:09:25;101171.22;;;13.28;100.00
64521;BME280;50896;46.714;17.322;2023-05-19T08:11:52;101177.47;;;13.37;100.00
64521;BME280;50896;46.714;17.322;2023-05-19T08:14:19;101177.28;;;13.39;100.00
64521;BME280;50896;46.714;17.322;2023-05-19T08:16:48;101173.50;;;13.49;100.00
64521;BME280;50896;46.714;17.322;2023-05-19T08:19:15;101180.66;;;13.49;100.00
64521;BME280;50896;46.714;17.322;2023-05-19T08:21:42;101179.16;;;13.55;100.00
64521;BME280;50896;46.714;17.322;2023-05-19T08:24:10;101168.31;;;13.56;100.00
64521;BME280;50896;46.714;17.322;2023-05-19T08:26:37;101173.69;;;13.64;100.00
64521;BME280;50896;46.714;17.322;2023-05-19T08:29:04;101168.84;;;13.60;100.00
64521;BME280;50896;46.714;17.322;2023-05-19T08:31:30;101164.84;;;13.64;100.00
64521;BME280;50896;46.714;17.322;2023-05-19T08:33:57;101160.00;;;13.76;100.00
64521;BME280;50896;46.714;17.322;2023-05-19T08:36:24;101163.38;;;13.86;100.00
64521;BME280;50896;46.714;17.322;2023-05-19T08:38:51;101160.88;;;13.93;100.00
64521;BME280;50896;46.714;17.322;2023-05-19T08:41:18;101154.38;;;13.95;100.00
64521;BME280;50896;46.714;17.322;2023-05-19T08:43:45;101151.69;;;13.95;100.00
64521;BME280;50896;46.714;17.322;2023-05-19T08:46:12;101134.31;;;13.91;100.00
64521;BME280;50896;46.714;17.322;2023-05-19T08:48:41;101136.63;;;13.86;100.00
64521;BME280;50896;46.714;17.322;2023-05-19T08:51:40;101149.84;;;13.96;100.00
64521;BME280;50896;46.714;17.322;2023-05-19T08:54:16;101153.50;;;13.95;100.00
64521;BME280;50896;46.714;17.322;2023-05-19T08:56:44;101147.34;;;14.02;100.00
64521;BME280;50896;46.714;17.322;2023-05-19T08:59:12;101149.69;;;14.14;100.00
64521;BME280;50896;46.714;17.322;2023-05-19T09:01:44;101142.47;;;14.23;100.00
64521;BME280;50896;46.714;17.322;2023-05-19T09:04:12;101140.50;;;14.16;100.00
64521;BME280;50896;46.714;17.322;2023-05-19T09:06:39;101139.81;;;14.31;100.00
64521;BME280;50896;46.714;17.322;2023-05-19T09:09:10;101131.59;;;14.24;100.00
64521;BME280;50896;46.714;17.322;2023-05-19T09:11:37;101153.16;;;14.31;100.00
64521;BME280;50896;46.714;17.322;2023-05-19T09:14:04;101148.50;;;14.25;100.00
64521;BME280;50896;46.714;17.322;2023-05-19T09:16:31;101144.97;;;14.41;100.00
64521;BME280;50896;46.714;17.322;2023-05-19T09:18:59;101145.47;;;14.44;100.00
64521;BME280;50896;46.714;17.322;2023-05-19T09:21:28;101151.13;;;14.49;100.00
64521;BME280;50896;46.714;17.322;2023-05-19T09:23:57;101148.63;;;14.56;100.00
64521;BME280;50896;46.714;17.322;2023-05-19T09:26:40;101148.28;;;14.67;100.00
64521;BME280;50896;46.714;17.322;2023-05-19T09:29:16;101130.69;;;14.73;100.00
64521;BME280;50896;46.714;17.322;2023-05-19T09:31:51;101128.03;;;14.73;100.00
64521;BME280;50896;46.714;17.322;2023-05-19T09:34:19;101131.16;;;14.93;100.00
64521;BME280;50896;46.714;17.322;2023-05-19T09:36:47;101128.84;;;14.82;100.00
64521;BME280;50896;46.714;17.322;2023-05-19T09:39:16;101128.59;;;15.00;100.00
64521;BME280;50896;46.714;17.322;2023-05-19T09:41:44;101121.84;;;15.12;100.00
64521;BME280;50896;46.714;17.322;2023-05-19T09:46:50;101112.28;;;15.18;100.00
64521;BME280;50896;46.714;17.322;2023-05-19T09:49:26;101109.31;;;15.13;100.00
64521;BME280;50896;46.714;17.322;2023-05-19T09:51:58;101109.59;;;15.18;100.00
64521;BME280;50896;46.714;17.322;2023-05-19T09:54:27;101105.78;;;15.12;100.00
64521;BME280;50896;46.714;17.322;2023-05-19T09:57:00;101106.63;;;15.13;100.00
64521;BME280;50896;46.714;17.322;2023-05-19T09:59:28;101100.69;;;14.86;100.00
64521;BME280;50896;46.714;17.322;2023-05-19T10:01:59;101107.16;;;15.00;100.00
64521;BME280;50896;46.714;17.322;2023-05-19T10:04:27;101101.91;;;14.83;100.00
64521;BME280;50896;46.714;17.322;2023-05-19T10:06:57;101107.22;;;14.92;100.00
64521;BME280;50896;46.714;17.322;2023-05-19T10:09:28;101110.72;;;14.92;100.00
64521;BME280;50896;46.714;17.322;2023-05-19T10:11:57;101117.13;;;14.75;100.00
64521;BME280;50896;46.714;17.322;2023-05-19T10:14:26;101119.38;;;14.38;100.00
64521;BME280;50896;46.714;17.322;2023-05-19T10:16:55;101105.81;;;14.56;100.00
64521;BME280;50896;46.714;17.322;2023-05-19T10:19:28;101113.50;;;14.67;100.00
64521;BME280;50896;46.714;17.322;2023-05-19T10:21:55;101122.03;;;14.71;100.00
64521;BME280;50896;46.714;17.322;2023-05-19T10:24:22;101126.66;;;14.85;100.00
64521;BME280;50896;46.714;17.322;2023-05-19T10:26:56;101124.13;;;14.92;100.00
64521;BME280;50896;46.714;17.322;2023-05-19T10:29:35;101120.53;;;15.08;100.00
64521;BME280;50896;46.714;17.322;2023-05-19T10:32:07;101116.25;;;15.22;100.00
64521;BME280;50896;46.714;17.322;2023-05-19T10:37:26;101127.81;;;15.54;100.00
64521;BME280;50896;46.714;17.322;2023-05-19T10:39:57;101122.50;;;15.69;100.00
64521;BME280;50896;46.714;17.322;2023-05-19T10:42:51;101117.59;;;15.81;100.00
64521;BME280;50896;46.714;17.322;2023-05-19T10:45:23;101113.41;;;15.78;100.00
64521;BME280;50896;46.714;17.322;2023-05-19T10:47:53;101118.25;;;15.83;100.00
64521;BME280;50896;46.714;17.322;2023-05-19T10:50:21;101110.78;;;15.93;100.00
64521;BME280;50896;46.714;17.322;2023-05-19T10:52:55;101112.66;;;15.93;100.00
64521;BME280;50896;46.714;17.322;2023-05-19T10:55:43;101114.81;;;16.12;100.00
64521;BME280;50896;46.714;17.322;2023-05-19T10:58:10;101108.91;;;16.17;100.00
64521;BME280;50896;46.714;17.322;2023-05-19T11:00:38;101096.41;;;16.24;100.00
64521;BME280;50896;46.714;17.322;2023-05-19T11:03:15;101107.47;;;16.44;100.00
64521;BME280;50896;46.714;17.322;2023-05-19T11:05:49;101109.97;;;16.46;100.00
64521;BME280;50896;46.714;17.322;2023-05-19T11:08:31;101101.25;;;16.58;100.00
64521;BME280;50896;46.714;17.322;2023-05-19T11:11:12;101105.91;;;16.65;100.00
64521;BME280;50896;46.714;17.322;2023-05-19T11:13:42;101108.41;;;16.66;100.00
64521;BME280;50896;46.714;17.322;2023-05-19T11:16:13;101090.09;;;16.55;100.00
64521;BME280;50896;46.714;17.322;2023-05-19T11:18:40;101076.38;;;16.65;100.00
64521;BME280;50896;46.714;17.322;2023-05-19T11:21:07;101095.31;;;16.78;100.00
64521;BME280;50896;46.714;17.322;2023-05-19T11:23:37;101087.28;;;16.78;100.00
64521;BME280;50896;46.714;17.322;2023-05-19T11:26:06;101093.13;;;16.82;100.00
64521;BME280;50896;46.714;17.322;2023-05-19T11:28:34;101081.91;;;16.93;100.00
64521;BME280;50896;46.714;17.322;2023-05-19T11:31:03;101084.59;;;16.93;100.00
64521;BME280;50896;46.714;17.322;2023-05-19T11:33:33;101087.44;;;17.06;100.00
64521;BME280;50896;46.714;17.322;2023-05-19T11:36:01;101086.63;;;16.91;100.00
64521;BME280;50896;46.714;17.322;2023-05-19T11:38:28;101090.41;;;16.97;100.00
64521;BME280;50896;46.714;17.322;2023-05-19T11:40:56;101088.59;;;16.97;100.00
64521;BME280;50896;46.714;17.322;2023-05-19T11:43:23;101086.19;;;17.02;100.00
64521;BME280;50896;46.714;17.322;2023-05-19T11:45:51;101080.53;;;16.97;100.00
64521;BME280;50896;46.714;17.322;2023-05-19T11:48:21;101074.59;;;16.72;100.00
64521;BME280;50896;46.714;17.322;2023-05-19T11:50:49;101080.88;;;16.49;100.00
64521;BME280;50896;46.714;17.322;2023-05-19T11:53:17;101070.81;;;16.51;100.00
64521;BME280;50896;46.714;17.322;2023-05-19T11:55:46;101066.66;;;16.49;100.00
64521;BME280;50896;46.714;17.322;2023-05-19T11:58:14;101058.16;;;17.12;100.00
64521;BME280;50896;46.714;17.322;2023-05-19T12:00:43;101056.50;;;17.97;100.00
64521;BME280;50896;46.714;17.322;2023-05-19T12:03:12;101040.97;;;18.27;100.00
64521;BME280;50896;46.714;17.322;2023-05-19T12:05:44;101050.25;;;18.60;100.00
64521;BME280;50896;46.714;17.322;2023-05-19T12:08:13;101053.84;;;18.81;100.00
64521;BME280;50896;46.714;17.322;2023-05-19T12:10:42;101049.94;;;18.83;100.00
64521;BME280;50896;46.714;17.322;2023-05-19T12:13:09;101051.09;;;19.02;100.00
64521;BME280;50896;46.714;17.322;2023-05-19T12:15:36;101054.97;;;18.93;100.00
64521;BME280;50896;46.714;17.322;2023-05-19T12:18:04;101038.94;;;18.71;100.00
64521;BME280;50896;46.714;17.322;2023-05-19T12:20:32;101047.19;;;18.63;100.00
64521;BME280;50896;46.714;17.322;2023-05-19T12:23:02;101042.38;;;18.58;100.00
64521;BME280;50896;46.714;17.322;2023-05-19T12:25:29;101043.63;;;18.56;100.00
64521;BME280;50896;46.714;17.322;2023-05-19T12:27:59;101041.31;;;18.53;100.00
64521;BME280;50896;46.714;17.322;2023-05-19T12:30:27;101035.66;;;18.41;100.00
64521;BME280;50896;46.714;17.322;2023-05-19T12:32:58;101035.38;;;18.22;100.00
64521;BME280;50896;46.714;17.322;2023-05-19T12:35:31;101036.03;;;18.03;100.00
64521;BME280;50896;46.714;17.322;2023-05-19T12:38:10;101036.69;;;18.05;100.00
64521;BME280;50896;46.714;17.322;2023-05-19T12:40:40;101034.19;;;18.03;100.00
64521;BME280;50896;46.714;17.322;2023-05-19T12:43:07;101024.25;;;18.04;100.00
64521;BME280;50896;46.714;17.322;2023-05-19T12:45:35;101035.28;;;18.09;100.00
64521;BME280;50896;46.714;17.322;2023-05-19T12:48:12;101032.63;;;18.16;100.00
64521;BME280;50896;46.714;17.322;2023-05-19T12:50:42;101028.72;;;18.25;100.00
64521;BME280;50896;46.714;17.322;2023-05-19T12:53:13;101026.50;;;18.28;100.00
64521;BME280;50896;46.714;17.322;2023-05-19T12:55:43;101026.31;;;18.37;100.00
64521;BME280;50896;46.714;17.322;2023-05-19T12:58:10;101022.00;;;18.42;100.00
64521;BME280;50896;46.714;17.322;2023-05-19T13:00:41;101023.69;;;18.43;100.00
64521;BME280;50896;46.714;17.322;2023-05-19T13:03:19;101017.28;;;18.51;100.00